Time;durP1;ratioP1;P1;durP2;ratioP2;P2;SDS_P1;SDS_P2;PMS_P1;PMS_P2;Temp;Humidity;BMP_temperature;BMP_pressure;BME280_temperature;BME280_humidity;BME280_pressure;Samples;Min_cycle;Max_cycle;Signal;HPM_P1;HPM_P2
2022/01/22 00:00:45;;;;;;;1.23;1.17;;;;;;;5.45;100.00;103472.88;4995561;28;20037;-70
2022/01/22 00:03:11;;;;;;;2.63;1.63;;;;;;;5.39;100.00;103471.91;4995201;28;20038;-70
2022/01/22 00:05:36;;;;;;;1.67;1.58;;;;;;;5.62;100.00;103470.59;4995367;28;20118;-70
2022/01/22 00:08:58;;;;;;;3.38;1.40;;;;;;;5.55;100.00;103469.59;4995310;28;20068;-70
2022/01/22 00:11:40;;;;;;;1.45;1.35;;;;;;;5.50;100.00;103465.97;4995371;28;20026;-70
2022/01/22 00:14:25;;;;;;;1.13;1.02;;;;;;;5.57;100.00;103453.78;4995887;28;20030;-70
2022/01/22 00:16:59;;;;;;;2.83;1.48;;;;;;;5.59;100.00;103455.63;4995293;28;20034;-71
2022/01/22 00:19:25;;;;;;;1.30;1.20;;;;;;;5.58;100.00;103445.91;4993643;28;20486;-70
2022/01/22 00:21:51;;;;;;;1.30;1.20;;;;;;;5.59;100.00;103441.53;4995121;28;20026;-71
2022/01/22 00:24:18;;;;;;;1.23;1.13;;;;;;;5.44;100.00;103439.50;4993584;28;20494;-71
2022/01/22 00:26:44;;;;;;;1.52;1.42;;;;;;;5.56;100.00;103437.09;4977628;28;20050;-71
2022/01/22 00:29:11;;;;;;;2.55;1.77;;;;;;;5.47;100.00;103436.91;4993847;28;20038;-71
2022/01/22 00:31:39;;;;;;;1.30;1.20;;;;;;;5.45;100.00;103435.97;4977584;28;20030;-71
2022/01/22 00:34:04;;;;;;;1.58;1.48;;;;;;;5.57;100.00;103440.63;4993763;28;20038;-71
2022/01/22 00:36:30;;;;;;;1.30;1.20;;;;;;;5.58;100.00;103443.28;4994823;28;20033;-71
2022/01/22 00:38:55;;;;;;;1.42;1.27;;;;;;;5.49;100.00;103432.56;4995015;28;20026;-71
2022/01/22 00:41:21;;;;;;;1.58;1.35;;;;;;;5.49;100.00;103427.28;4994588;28;20113;-71
2022/01/22 00:43:47;;;;;;;1.52;1.42;;;;;;;5.47;100.00;103428.09;4993557;28;20026;-71
2022/01/22 00:46:12;;;;;;;1.90;1.48;;;;;;;5.53;100.00;103429.13;4994470;28;20121;-70
2022/01/22 00:48:37;;;;;;;2.78;1.30;;;;;;;5.48;100.00;103424.63;4993393;28;20058;-71
2022/01/22 00:51:03;;;;;;;1.00;1.00;;;;;;;5.47;100.00;103429.00;4992937;28;20046;-71
2022/01/22 00:53:28;;;;;;;1.27;1.17;;;;;;;5.43;100.00;103426.28;4993807;28;20034;-71
2022/01/22 00:55:53;;;;;;;1.45;1.17;;;;;;;5.48;100.00;103428.16;4995175;28;20019;-71
2022/01/22 00:58:19;;;;;;;1.38;1.27;;;;;;;5.61;100.00;103427.53;4995076;28;20545;-71
2022/01/22 01:00:44;;;;;;;2.28;0.98;;;;;;;5.67;100.00;103435.53;4994888;28;20034;-71
2022/01/22 01:03:46;;;;;;;1.25;1.17;;;;;;;5.77;100.00;103424.31;5009338;28;20080;-70
2022/01/22 01:06:11;;;;;;;2.10;1.50;;;;;;;5.73;100.00;103422.50;4993037;28;20030;-71
2022/01/22 01:08:49;;;;;;;1.48;1.40;;;;;;;5.65;100.00;103434.63;4994646;28;20041;-71
2022/01/22 01:11:16;;;;;;;1.40;1.30;;;;;;;5.65;100.00;103429.38;4994676;28;20117;-71
2022/01/22 01:13:46;;;;;;;1.80;1.35;;;;;;;5.65;100.00;103418.81;4994717;28;20033;-71
2022/01/22 01:16:42;;;;;;;1.02;1.02;;;;;;;5.77;100.00;103416.41;4992986;28;20097;-71
2022/01/22 01:33:02;;;;;;;1.13;1.02;;;;;;;5.77;100.00;103418.13;4995103;28;20073;-70
2022/01/22 01:35:29;;;;;;;7.93;1.40;;;;;;;5.77;100.00;103413.75;4993038;28;20102;-70
2022/01/22 01:37:57;;;;;;;0.90;0.90;;;;;;;5.90;100.00;103422.81;4994336;28;20080;-70
2022/01/22 01:40:24;;;;;;;1.10;1.00;;;;;;;5.82;100.00;103422.69;4993752;28;20532;-71
2022/01/22 01:43:03;;;;;;;1.35;1.10;;;;;;;5.78;100.00;103426.06;4994045;28;20050;-71
2022/01/22 01:45:29;;;;;;;1.38;1.27;;;;;;;5.75;100.00;103428.66;4994622;28;20033;-71
2022/01/22 01:48:04;;;;;;;0.80;0.80;;;;;;;5.89;100.00;103429.81;4993838;28;20030;-71
2022/01/22 01:50:32;;;;;;;1.20;1.20;;;;;;;5.82;100.00;103424.41;4992739;28;20489;-71
2022/01/22 01:56:03;;;;;;;1.17;1.08;;;;;;;5.83;100.00;103435.00;4994640;28;20133;-71
2022/01/22 01:58:28;;;;;;;0.82;0.82;;;;;;;6.02;100.00;103437.09;4992581;28;20057;-71
2022/01/22 02:00:55;;;;;;;1.05;1.05;;;;;;;5.96;100.00;103428.19;4993970;28;20058;-71
2022/01/22 02:03:21;;;;;;;1.38;0.90;;;;;;;5.87;100.00;103431.56;4994884;28;20037;-71
2022/01/22 02:05:46;;;;;;;0.90;0.90;;;;;;;5.89;100.00;103432.47;4997981;28;20027;-71
2022/01/22 02:08:13;;;;;;;1.10;1.10;;;;;;;6.08;100.00;103434.56;4998130;28;20026;-71
2022/01/22 02:10:44;;;;;;;1.30;1.20;;;;;;;5.94;100.00;103433.44;4997967;28;20030;-71
2022/01/22 02:24:28;;;;;;;1.20;1.10;;;;;;;6.04;100.00;103432.75;4975260;28;20149;-71
2022/01/22 02:26:53;;;;;;;0.98;0.88;;;;;;;5.95;100.00;103431.69;4976222;28;20117;-71
2022/01/22 02:29:18;;;;;;;1.40;1.20;;;;;;;5.95;100.00;103427.31;4985842;28;20046;-71
2022/01/22 02:32:00;;;;;;;0.80;0.80;;;;;;;5.94;100.00;103427.28;4997542;28;20389;-71
2022/01/22 02:34:34;;;;;;;2.35;1.05;;;;;;;6.02;100.00;103425.66;4997536;28;20066;-72
2022/01/22 02:37:05;;;;;;;2.80;1.23;;;;;;;5.97;100.00;103422.94;4997467;28;20062;-71
2022/01/22 02:40:17;;;;;;;0.90;0.90;;;;;;;5.99;100.00;103430.88;4996839;28;20106;-72
2022/01/22 02:42:23;;;;;;;1.17;1.08;;;;;;;5.92;100.00;103427.28;4995939;28;20049;-71
2022/01/22 02:44:48;;;;;;;1.15;1.10;;;;;;;5.96;100.00;103426.44;4998918;28;20027;-71
2022/01/22 02:47:15;;;;;;;1.23;1.02;;;;;;;6.00;100.00;103425.63;4997029;28;20072;-72
2022/01/22 02:49:41;;;;;;;0.85;0.85;;;;;;;6.08;100.00;103421.38;4995902;28;20084;-70
2022/01/22 02:52:08;;;;;;;1.00;1.00;;;;;;;6.03;100.00;103417.78;4997138;28;20543;-71
2022/01/22 02:54:35;;;;;;;1.30;1.25;;;;;;;6.25;100.00;103426.94;4997106;28;20462;-71
2022/01/22 02:57:00;;;;;;;0.98;0.82;;;;;;;6.13;100.00;103424.06;4998163;28;20056;-71
2022/01/22 02:59:26;;;;;;;2.65;1.10;;;;;;;6.08;100.00;103420.50;4995514;28;20022;-71
2022/01/22 03:01:52;;;;;;;5.03;1.35;;;;;;;6.14;100.00;103410.03;4995978;28;20104;-71
2022/01/22 03:04:18;;;;;;;0.90;0.90;;;;;;;6.10;100.00;103418.75;4997063;28;20030;-71
2022/01/22 03:06:43;;;;;;;2.60;1.48;;;;;;;6.13;100.00;103417.06;4997230;28;20538;-71
2022/01/22 03:09:12;;;;;;;1.17;0.98;;;;;;;6.17;100.00;103425.91;4995923;28;20034;-71
2022/01/22 03:12:16;;;;;;;0.90;0.90;;;;;;;6.26;100.00;103430.47;5013451;28;20026;-71
2022/01/22 03:17:29;;;;;;;1.70;1.60;;;;;;;6.11;100.00;103433.75;4996899;28;20041;-71
2022/01/22 03:20:06;;;;;;;0.90;0.90;;;;;;;5.96;100.00;103431.72;4996843;28;20062;-71
2022/01/22 03:27:44;;;;;;;3.03;1.00;;;;;;;6.15;100.00;103438.19;4996173;28;20185;-71
2022/01/22 03:30:10;;;;;;;1.33;1.23;;;;;;;6.19;100.00;103440.91;4996009;28;20066;-71
2022/01/22 03:32:45;;;;;;;0.80;0.80;;;;;;;6.16;100.00;103439.97;4996720;28;20037;-70
2022/01/22 03:35:24;;;;;;;1.90;1.25;;;;;;;6.03;100.00;103438.88;4995019;28;20482;-71
2022/01/22 03:37:52;;;;;;;1.13;1.13;;;;;;;6.12;100.00;103441.69;4996056;28;20041;-70
2022/01/22 03:40:23;;;;;;;0.80;0.80;;;;;;;6.15;100.00;103441.72;4995816;28;20352;-71
2022/01/22 03:42:50;;;;;;;1.13;1.05;;;;;;;6.12;100.00;103444.31;4995751;28;20105;-71
2022/01/22 03:45:15;;;;;;;0.70;0.70;;;;;;;6.15;100.00;103449.63;4995730;28;20031;-70
2022/01/22 03:47:41;;;;;;;0.85;0.85;;;;;;;6.16;100.00;103447.91;4995489;28;20102;-70
2022/01/22 03:50:08;;;;;;;0.77;0.77;;;;;;;6.26;100.00;103447.16;4994380;28;20427;-71
2022/01/22 03:52:33;;;;;;;2.05;1.20;;;;;;;6.19;100.00;103434.75;4994283;28;20023;-70
2022/01/22 03:54:59;;;;;;;1.92;1.83;;;;;;;6.11;100.00;103442.50;4995280;28;20560;-70
2022/01/22 03:57:24;;;;;;;2.42;0.80;;;;;;;6.11;100.00;103442.50;4994232;28;20034;-71
2022/01/22 03:59:52;;;;;;;0.93;0.93;;;;;;;6.06;100.00;103444.22;4994215;28;20512;-71
2022/01/22 04:03:01;;;;;;;1.00;1.00;;;;;;;6.00;100.00;103443.22;4994546;28;20121;-71
2022/01/22 04:05:15;;;;;;;0.85;0.85;;;;;;;5.92;100.00;103440.47;4995396;28;20045;-71
2022/01/22 04:10:38;;;;;;;1.23;0.90;;;;;;;6.04;100.00;103439.75;4994505;28;20152;-71
2022/01/22 04:13:08;;;;;;;1.02;0.98;;;;;;;6.23;100.00;103429.56;4995786;28;20038;-71
2022/01/22 04:15:37;;;;;;;0.80;0.80;;;;;;;6.05;100.00;103438.91;4996072;28;20022;-71
2022/01/22 04:26:28;;;;;;;1.45;1.35;;;;;;;6.17;100.00;103454.94;4994049;28;20449;-71
2022/01/22 04:28:53;;;;;;;1.88;1.00;;;;;;;6.05;100.00;103447.69;4995019;28;20034;-71
2022/01/22 04:31:19;;;;;;;0.73;0.73;;;;;;;6.14;100.00;103450.50;4995192;28;20111;-71
2022/01/22 04:33:45;;;;;;;0.80;0.80;;;;;;;6.14;100.00;103449.63;4993868;28;20045;-70
2022/01/22 04:36:11;;;;;;;0.85;0.85;;;;;;;6.14;100.00;103453.16;4993560;28;20054;-71
2022/01/22 04:38:38;;;;;;;1.30;0.93;;;;;;;6.14;100.00;103450.50;4993440;28;20528;-70
2022/01/22 04:41:04;;;;;;;1.60;1.48;;;;;;;6.09;100.00;103444.25;4993505;28;20505;-71
2022/01/22 04:43:32;;;;;;;0.82;0.82;;;;;;;6.04;100.00;103448.56;4993575;28;20478;-71
2022/01/22 04:48:50;;;;;;;0.70;0.70;;;;;;;6.10;100.00;103445.13;4994532;28;20044;-71
2022/01/22 04:56:44;;;;;;;1.05;1.05;;;;;;;6.18;100.00;103436.50;4995057;28;20181;-71
2022/01/22 04:59:09;;;;;;;1.75;0.98;;;;;;;6.30;100.00;103438.47;4993526;28;20057;-70
2022/01/22 05:01:35;;;;;;;0.75;0.75;;;;;;;6.30;100.00;103429.63;4994733;28;20057;-71
2022/01/22 05:04:00;;;;;;;0.73;0.73;;;;;;;6.45;100.00;103432.50;4993358;28;20041;-70
2022/01/22 05:06:26;;;;;;;0.95;0.95;;;;;;;6.45;100.00;103437.78;4994259;28;20026;-71
2022/01/22 05:08:52;;;;;;;0.88;0.85;;;;;;;6.38;100.00;103430.66;4994619;28;20030;-71
2022/01/22 05:11:18;;;;;;;1.75;0.98;;;;;;;6.38;100.00;103436.84;4993086;28;20036;-70
2022/01/22 05:13:44;;;;;;;0.80;0.80;;;;;;;6.44;100.00;103430.75;4994500;28;20042;-71
2022/01/22 05:16:09;;;;;;;1.20;1.13;;;;;;;6.54;100.00;103435.31;4993097;28;20022;-71
2022/01/22 05:18:42;;;;;;;1.10;1.00;;;;;;;6.52;100.00;103431.75;5009657;28;20034;-71
2022/01/22 05:21:11;;;;;;;0.82;0.80;;;;;;;6.47;100.00;103429.03;4994664;28;20039;-71
2022/01/22 05:23:38;;;;;;;0.70;0.70;;;;;;;6.43;100.00;103434.25;4993082;28;20018;-71
2022/01/22 05:26:08;;;;;;;1.95;0.80;;;;;;;6.42;100.00;103437.75;4991646;28;20117;-72
2022/01/22 05:39:10;;;;;;;0.63;0.63;;;;;;;6.19;100.00;103430.34;5016827;28;20060;-70
2022/01/22 05:41:40;;;;;;;0.70;0.70;;;;;;;6.29;100.00;103438.44;5016401;28;20053;-71
2022/01/22 05:44:07;;;;;;;1.27;0.90;;;;;;;6.30;100.00;103440.19;5013620;28;20420;-71
2022/01/22 05:46:32;;;;;;;0.90;0.90;;;;;;;6.23;100.00;103439.22;5016259;28;20481;-71
2022/01/22 05:48:57;;;;;;;0.80;0.80;;;;;;;6.14;100.00;103442.59;5016504;28;20037;-71
2022/01/22 05:51:23;;;;;;;0.85;0.85;;;;;;;6.31;100.00;103441.97;5014928;28;20104;-71
2022/01/22 06:01:47;;;;;;;0.77;0.77;;;;;;;6.17;100.00;103458.47;5015930;28;20053;-71
2022/01/22 06:04:13;;;;;;;1.20;0.88;;;;;;;6.28;100.00;103457.75;5015945;28;20470;-71
2022/01/22 06:06:38;;;;;;;0.80;0.80;;;;;;;6.37;100.00;103471.97;5015168;28;20117;-72
2022/01/22 06:09:08;;;;;;;0.85;0.85;;;;;;;6.32;100.00;103468.38;5005528;28;20103;-71
2022/01/22 06:11:40;;;;;;;1.90;0.85;;;;;;;6.33;100.00;103469.28;5000744;28;20378;-72
2022/01/22 06:14:05;;;;;;;0.70;0.70;;;;;;;6.21;100.00;103469.94;4996681;28;20048;-72
2022/01/22 06:16:31;;;;;;;0.80;0.80;;;;;;;6.24;100.00;103475.28;5002647;28;20033;-72
2022/01/22 06:18:56;;;;;;;3.63;1.63;;;;;;;6.14;100.00;103468.09;4999086;28;20154;-73
2022/01/22 06:21:21;;;;;;;0.90;0.90;;;;;;;6.26;100.00;103467.41;5002392;28;20041;-71
2022/01/22 06:23:47;;;;;;;1.10;1.00;;;;;;;6.21;100.00;103469.94;5004253;28;20061;-72
2022/01/22 06:26:13;;;;;;;2.25;1.00;;;;;;;6.14;100.00;103469.00;5002685;28;20153;-72
2022/01/22 06:28:39;;;;;;;0.80;0.80;;;;;;;6.14;100.00;103471.63;4995661;28;20085;-73
2022/01/22 06:31:04;;;;;;;0.80;0.80;;;;;;;6.32;100.00;103467.50;4995811;28;20049;-72
2022/01/22 06:33:30;;;;;;;1.23;1.13;;;;;;;6.48;100.00;103465.13;4996185;28;20393;-72
2022/01/22 06:35:56;;;;;;;1.75;1.65;;;;;;;6.38;100.00;103473.78;4995696;28;20026;-73
2022/01/22 06:38:21;;;;;;;0.98;0.98;;;;;;;6.26;100.00;103481.47;4995909;28;20034;-73
2022/01/22 06:43:31;;;;;;;1.52;0.90;;;;;;;6.29;100.00;103485.94;4995701;28;20045;-71
2022/01/22 06:45:57;;;;;;;1.27;1.10;;;;;;;6.35;100.00;103484.25;4995310;28;20034;-72
2022/01/22 06:48:22;;;;;;;0.98;0.98;;;;;;;6.42;100.00;103480.88;4995305;28;20105;-71
2022/01/22 06:50:48;;;;;;;1.00;0.90;;;;;;;6.49;100.00;103480.13;4995200;28;20061;-70
2022/01/22 06:53:14;;;;;;;0.80;0.80;;;;;;;6.44;100.00;103478.25;5002325;28;20412;-72
2022/01/22 06:55:46;;;;;;;1.77;0.95;;;;;;;6.42;100.00;103477.34;5014096;28;20030;-71
2022/01/22 06:58:12;;;;;;;0.82;0.82;;;;;;;6.44;100.00;103479.16;5013504;28;20084;-74
2022/01/22 07:00:37;;;;;;;2.30;1.55;;;;;;;6.40;100.00;103484.38;5013563;28;20022;-70
2022/01/22 07:03:04;;;;;;;0.85;0.85;;;;;;;6.50;100.00;103489.81;5014921;28;20447;-70
2022/01/22 07:05:29;;;;;;;1.05;1.05;;;;;;;6.40;100.00;103498.44;5013556;28;20033;-72
2022/01/22 07:07:55;;;;;;;0.80;0.80;;;;;;;6.28;100.00;103499.97;5015225;28;20026;-73
2022/01/22 07:10:20;;;;;;;1.10;1.05;;;;;;;6.31;100.00;103500.91;5013732;28;20033;-72
2022/01/22 07:12:46;;;;;;;0.93;0.93;;;;;;;6.33;100.00;103498.31;5014608;28;20038;-73
2022/01/22 07:15:11;;;;;;;1.15;1.05;;;;;;;6.42;100.00;103491.44;5013353;28;20026;-71
2022/01/22 07:17:39;;;;;;;1.98;1.80;;;;;;;6.41;100.00;103505.50;5014714;28;20060;-70
2022/01/22 07:20:09;;;;;;;2.38;1.38;;;;;;;6.41;100.00;103499.31;5013130;28;20115;-74
2022/01/22 07:22:53;;;;;;;3.95;1.02;;;;;;;6.42;100.00;103496.72;5013156;28;20235;-75
2022/01/22 07:25:19;;;;;;;0.95;0.90;;;;;;;6.40;100.00;103503.72;5012732;28;20500;-71
2022/01/22 07:27:45;;;;;;;0.88;0.88;;;;;;;6.36;100.00;103496.63;5013548;28;20068;-71
2022/01/22 07:30:11;;;;;;;1.27;1.17;;;;;;;6.32;100.00;103493.91;5013131;28;20029;-72
2022/01/22 07:32:41;;;;;;;1.10;1.00;;;;;;;6.62;100.00;103490.00;5012592;28;20038;-72
2022/01/22 07:35:07;;;;;;;0.95;0.80;;;;;;;6.54;100.00;103496.03;5006970;28;20029;-71
2022/01/22 07:37:32;;;;;;;1.63;1.08;;;;;;;6.48;100.00;103490.63;5013701;28;20022;-71
2022/01/22 07:39:58;;;;;;;0.85;0.85;;;;;;;6.42;100.00;103493.16;5013765;28;20032;-71
2022/01/22 07:42:23;;;;;;;1.20;1.13;;;;;;;6.59;100.00;103491.69;5012297;28;20121;-72
2022/01/22 07:44:48;;;;;;;2.72;0.90;;;;;;;6.62;100.00;103490.00;5012389;28;20121;-71
2022/01/22 07:47:14;;;;;;;0.85;0.80;;;;;;;6.51;100.00;103493.34;5012162;28;20045;-71
2022/01/22 07:49:40;;;;;;;1.50;1.25;;;;;;;6.60;100.00;103488.19;5013360;28;20029;-72
2022/01/22 07:52:06;;;;;;;1.10;1.00;;;;;;;6.57;100.00;103485.50;5009474;28;20027;-71
2022/01/22 07:54:31;;;;;;;1.27;1.10;;;;;;;6.54;100.00;103472.28;5011185;28;20104;-71
2022/01/22 07:56:57;;;;;;;0.80;0.80;;;;;;;6.59;100.00;103479.38;5009206;28;20123;-72
2022/01/22 07:59:22;;;;;;;2.67;1.35;;;;;;;6.59;100.00;103479.38;5013331;28;20061;-72
2022/01/22 08:01:48;;;;;;;1.00;0.88;;;;;;;6.56;100.00;103484.63;5013154;28;20040;-72
2022/01/22 08:04:15;;;;;;;1.02;1.02;;;;;;;6.70;100.00;103474.25;5008999;28;20022;-72
2022/01/22 08:06:41;;;;;;;2.72;1.52;;;;;;;6.65;100.00;103481.25;5006473;28;20025;-72
2022/01/22 08:09:06;;;;;;;1.38;1.27;;;;;;;6.58;100.00;103482.00;4998935;28;20045;-72
2022/01/22 08:11:31;;;;;;;1.45;1.15;;;;;;;6.49;100.00;103474.84;4992246;28;20089;-72
2022/01/22 08:13:57;;;;;;;1.08;0.98;;;;;;;6.46;100.00;103476.53;4992777;28;20034;-72
2022/01/22 08:16:22;;;;;;;0.77;0.77;;;;;;;6.54;100.00;103469.63;5007320;28;20060;-72
2022/01/22 08:18:47;;;;;;;1.70;1.42;;;;;;;6.55;100.00;103474.94;5013670;28;20060;-76
2022/01/22 08:21:12;;;;;;;1.88;1.77;;;;;;;6.63;100.00;103475.94;5013859;28;20400;-72
2022/01/22 08:23:57;;;;;;;1.48;1.38;;;;;;;6.66;100.00;103488.28;5014342;28;20430;-72
2022/01/22 08:26:28;;;;;;;1.02;0.98;;;;;;;6.73;100.00;103487.53;5013679;28;20073;-71
2022/01/22 08:28:53;;;;;;;1.17;1.13;;;;;;;6.79;100.00;103488.47;5014396;28;20026;-71
2022/01/22 08:36:36;;;;;;;1.52;1.15;;;;;;;6.94;100.00;103495.75;5014784;28;20137;-72
2022/01/22 08:39:02;;;;;;;2.35;1.58;;;;;;;6.88;100.00;103498.31;5014333;28;20054;-71
2022/01/22 08:41:27;;;;;;;2.75;1.20;;;;;;;6.79;100.00;103496.41;5014479;28;20069;-72
2022/01/22 08:43:54;;;;;;;1.15;1.05;;;;;;;6.75;100.00;103491.06;5013269;28;20045;-71
2022/01/22 08:46:20;;;;;;;1.45;1.15;;;;;;;6.84;100.00;103499.16;5012972;28;20032;-71
2022/01/22 08:48:46;;;;;;;2.10;2.00;;;;;;;6.90;100.00;103500.09;5012992;28;20125;-71
2022/01/22 08:51:12;;;;;;;1.63;1.52;;;;;;;7.03;100.00;103504.69;5014538;28;20056;-71
2022/01/22 08:53:38;;;;;;;2.13;1.42;;;;;;;6.97;100.00;103499.34;5014210;28;20030;-72
2022/01/22 08:56:05;;;;;;;1.98;1.58;;;;;;;7.02;100.00;103507.31;5014255;28;20079;-71
2022/01/22 08:58:31;;;;;;;1.20;1.08;;;;;;;7.03;100.00;103503.81;5012342;28;20469;-72
2022/01/22 09:00:57;;;;;;;2.25;2.10;;;;;;;7.12;100.00;103503.94;5010823;28;20038;-72
2022/01/22 09:03:23;;;;;;;1.80;1.10;;;;;;;7.00;100.00;103507.31;5009912;28;20036;-72
2022/01/22 09:05:50;;;;;;;1.35;1.25;;;;;;;7.09;100.00;103506.56;5012765;28;20018;-72
2022/01/22 09:08:15;;;;;;;1.40;1.30;;;;;;;7.09;100.00;103495.97;5013924;28;20026;-72
2022/01/22 09:10:42;;;;;;;1.50;1.40;;;;;;;7.20;100.00;103507.59;5012858;28;20029;-71
2022/01/22 09:13:08;;;;;;;1.60;1.50;;;;;;;7.21;100.00;103506.72;5013393;28;20431;-73
2022/01/22 09:15:33;;;;;;;1.73;1.63;;;;;;;7.13;100.00;103511.00;5002370;28;20057;-71
2022/01/22 09:17:58;;;;;;;0.90;0.90;;;;;;;7.28;100.00;103511.22;4997389;28;20050;-73
2022/01/22 09:23:12;;;;;;;1.05;0.98;;;;;;;7.14;100.00;103523.34;4998561;28;20037;-74
2022/01/22 09:25:38;;;;;;;1.58;1.48;;;;;;;7.13;100.00;103530.41;5012891;28;20054;-77
2022/01/22 09:28:04;;;;;;;2.10;1.90;;;;;;;7.23;100.00;103531.41;5012614;28;20050;-73
2022/01/22 09:30:30;;;;;;;5.78;1.30;;;;;;;7.23;100.00;103534.94;5012622;28;20393;-71
2022/01/22 09:32:56;;;;;;;1.67;1.35;;;;;;;7.21;100.00;103536.69;4998477;28;20026;-74
2022/01/22 09:35:21;;;;;;;2.75;1.80;;;;;;;7.25;100.00;103538.50;4994529;28;20054;-73
2022/01/22 09:37:47;;;;;;;1.73;1.52;;;;;;;7.30;100.00;103535.91;4993172;28;20041;-73
2022/01/22 09:40:12;;;;;;;1.35;1.20;;;;;;;7.15;100.00;103541.00;4993127;28;20026;-72
2022/01/22 09:42:41;;;;;;;1.52;1.42;;;;;;;7.24;100.00;103547.28;4993804;28;20088;-71
2022/01/22 09:45:08;;;;;;;1.90;1.45;;;;;;;7.22;100.00;103556.06;4998791;28;20030;-71
2022/01/22 09:47:34;;;;;;;1.52;1.40;;;;;;;7.24;100.00;103551.69;5010756;28;20062;-72
2022/01/22 09:50:00;;;;;;;2.90;1.30;;;;;;;7.18;100.00;103567.47;5013118;28;20033;-72
2022/01/22 09:52:26;;;;;;;1.48;1.17;;;;;;;7.23;100.00;103568.41;5028763;28;20033;-72
2022/01/22 09:54:52;;;;;;;1.13;1.02;;;;;;;7.25;100.00;103559.63;5012460;28;20048;-72
2022/01/22 09:57:17;;;;;;;1.33;1.23;;;;;;;7.30;100.00;103563.25;5012201;28;20480;-71
2022/01/22 09:59:43;;;;;;;2.28;1.20;;;;;;;7.30;100.00;103563.25;5013716;28;20080;-71
2022/01/22 10:02:18;;;;;;;2.05;1.65;;;;;;;7.31;100.00;103558.84;5012214;28;20045;-71
2022/01/22 10:04:52;;;;;;;4.15;1.98;;;;;;;7.24;100.00;103571.09;5013537;28;20040;-71
2022/01/22 10:07:21;;;;;;;5.38;1.20;;;;;;;7.39;100.00;103565.13;5012692;28;20472;-71
2022/01/22 10:10:02;;;;;;;1.13;0.95;;;;;;;7.34;100.00;103572.97;5013734;28;20077;-71
2022/01/22 10:12:29;;;;;;;1.38;1.27;;;;;;;7.48;100.00;103571.44;5013486;28;20390;-71
2022/01/22 10:15:09;;;;;;;2.40;2.30;;;;;;;7.51;100.00;103570.56;5012096;28;20018;-72
2022/01/22 10:17:47;;;;;;;3.35;3.15;;;;;;;7.41;100.00;103558.09;5012181;28;20401;-71
2022/01/22 10:20:26;;;;;;;1.25;1.13;;;;;;;7.47;100.00;103566.09;5011032;28;20033;-71
2022/01/22 10:23:09;;;;;;;1.48;1.38;;;;;;;7.75;100.00;103574.41;5007108;28;20117;-71
2022/01/22 10:25:39;;;;;;;3.33;3.03;;;;;;;7.54;100.00;103579.44;4995425;28;20046;-71
2022/01/22 10:28:23;;;;;;;2.83;1.73;;;;;;;7.60;100.00;103581.25;4996298;28;20085;-71
2022/01/22 10:30:55;;;;;;;1.60;1.50;;;;;;;7.82;100.00;103585.94;4996603;28;20084;-72
2022/01/22 10:33:28;;;;;;;1.98;1.80;;;;;;;7.60;100.00;103589.19;4997417;28;20121;-71
2022/01/22 10:36:07;;;;;;;1.35;1.17;;;;;;;7.54;100.00;103591.75;4995844;28;20385;-72
2022/01/22 10:38:48;;;;;;;3.05;1.23;;;;;;;7.72;100.00;103589.38;4997334;28;20077;-72
2022/01/22 10:41:16;;;;;;;2.20;1.30;;;;;;;7.74;100.00;103580.56;4995685;28;20113;-71
2022/01/22 10:43:51;;;;;;;3.00;1.60;;;;;;;7.62;100.00;103572.50;4996224;28;20027;-71
2022/01/22 10:48:53;;;;;;;1.90;1.42;;;;;;;7.65;100.00;103574.28;4996996;28;20037;-71
2022/01/22 10:51:19;;;;;;;2.58;1.70;;;;;;;7.70;100.00;103577.88;4996030;28;20153;-72
2022/01/22 10:53:46;;;;;;;3.78;2.08;;;;;;;7.63;100.00;103581.28;4995626;28;20486;-71
2022/01/22 10:56:19;;;;;;;1.90;1.65;;;;;;;7.90;100.00;103579.00;5011851;28;20485;-72
2022/01/22 10:59:01;;;;;;;1.63;1.52;;;;;;;7.69;100.00;103584.00;4996913;28;20034;-72
2022/01/22 11:01:43;;;;;;;5.88;1.60;;;;;;;7.74;100.00;103582.31;4996947;28;20073;-72
2022/01/22 11:04:10;;;;;;;2.00;1.90;;;;;;;7.73;100.00;103580.56;4996693;28;20044;-71
2022/01/22 11:06:37;;;;;;;2.38;1.80;;;;;;;7.60;100.00;103566.28;4996394;28;20022;-71
2022/01/22 11:09:05;;;;;;;1.83;1.73;;;;;;;7.70;100.00;103567.28;4996624;28;20026;-72
2022/01/22 11:11:35;;;;;;;1.25;1.15;;;;;;;7.66;100.00;103578.69;4996836;28;20034;-72
2022/01/22 11:14:01;;;;;;;1.55;1.45;;;;;;;7.66;100.00;103576.03;4996992;28;20045;-72
2022/01/22 11:16:28;;;;;;;3.45;1.52;;;;;;;7.77;100.00;103571.78;4996040;28;20026;-71
2022/01/22 11:18:54;;;;;;;2.10;1.98;;;;;;;7.71;100.00;103567.31;4994998;28;20049;-72
2022/01/22 11:21:20;;;;;;;1.70;1.60;;;;;;;7.74;100.00;103570.00;5011008;28;20490;-72
2022/01/22 11:23:46;;;;;;;3.08;2.88;;;;;;;7.64;100.00;103569.88;5007551;28;20084;-73
2022/01/22 11:26:13;;;;;;;3.72;1.48;;;;;;;8.04;100.00;103569.44;5015654;28;20481;-72
2022/01/22 11:28:40;;;;;;;2.75;1.63;;;;;;;7.92;100.00;103576.38;5014249;28;20030;-72
2022/01/22 11:31:07;;;;;;;1.83;1.55;;;;;;;7.93;100.00;103581.69;5015688;28;20034;-72
2022/01/22 11:33:37;;;;;;;1.80;1.30;;;;;;;7.80;100.00;103579.75;5014229;28;20493;-72
2022/01/22 11:36:28;;;;;;;1.27;1.17;;;;;;;7.73;100.00;103576.16;5014080;28;20440;-72
2022/01/22 11:38:57;;;;;;;1.85;1.25;;;;;;;7.78;100.00;103579.72;5028972;28;20444;-72
2022/01/22 11:41:24;;;;;;;5.38;1.95;;;;;;;7.71;100.00;103582.28;5014095;28;20054;-73
2022/01/22 11:44:12;;;;;;;1.77;1.52;;;;;;;7.93;100.00;103586.06;5013869;28;20107;-73
2022/01/22 11:46:50;;;;;;;1.23;1.13;;;;;;;7.90;100.00;103579.00;5015039;28;20030;-72
2022/01/22 11:49:35;;;;;;;2.90;1.40;;;;;;;7.82;100.00;103580.66;5015434;28;20034;-72
2022/01/22 11:52:12;;;;;;;1.88;1.67;;;;;;;7.94;100.00;103580.84;5030323;28;20030;-73
2022/01/22 11:54:56;;;;;;;1.85;1.58;;;;;;;7.77;100.00;103571.78;5015045;28;20192;-73
2022/01/22 11:57:23;;;;;;;3.05;1.98;;;;;;;7.82;100.00;103578.91;5014826;28;20153;-72
2022/01/22 12:00:17;;;;;;;2.92;2.47;;;;;;;7.72;100.00;103571.72;5015264;28;20038;-73
2022/01/22 12:02:43;;;;;;;1.95;1.48;;;;;;;7.77;100.00;103571.78;5014646;28;20022;-73
2022/01/22 12:05:09;;;;;;;2.35;1.80;;;;;;;7.77;100.00;103575.31;5014420;28;20041;-73
2022/01/22 12:07:36;;;;;;;2.70;2.30;;;;;;;7.75;100.00;103570.91;5014768;28;20444;-72
2022/01/22 12:10:33;;;;;;;1.63;1.52;;;;;;;7.73;100.00;103569.97;5029772;28;20033;-73
2022/01/22 12:16:05;;;;;;;3.60;1.95;;;;;;;7.68;100.00;103579.59;5014790;28;20496;-72
2022/01/22 12:18:34;;;;;;;2.22;1.50;;;;;;;7.65;100.00;103569.00;5013484;28;20114;-72
2022/01/22 12:23:31;;;;;;;4.05;2.42;;;;;;;7.46;100.00;103573.16;5005066;28;20038;-73
2022/01/22 12:25:58;;;;;;;8.30;1.90;;;;;;;7.44;100.00;103572.25;4993016;28;20141;-72
2022/01/22 12:28:44;;;;;;;2.72;2.20;;;;;;;7.56;100.00;103563.59;4993485;28;20030;-72
2022/01/22 12:31:16;;;;;;;4.32;2.40;;;;;;;7.43;100.00;103559.00;4992948;28;20400;-72
2022/01/22 12:33:41;;;;;;;2.70;2.47;;;;;;;7.48;100.00;103568.78;4994798;28;20382;-73
2022/01/22 12:36:10;;;;;;;3.83;3.07;;;;;;;7.51;100.00;103562.63;4994707;28;20034;-71
2022/01/22 12:41:29;;;;;;;4.57;2.38;;;;;;;7.43;100.00;103570.47;4994550;28;20041;-72
2022/01/22 12:44:10;;;;;;;2.83;1.98;;;;;;;7.40;100.00;103561.59;4995153;28;20407;-72
2022/01/22 12:46:36;;;;;;;4.20;2.80;;;;;;;7.17;100.00;103557.78;4992782;28;20441;-72
2022/01/22 12:49:03;;;;;;;3.08;2.42;;;;;;;7.39;100.00;103562.50;4993441;28;20366;-73
2022/01/22 12:51:30;;;;;;;2.22;1.67;;;;;;;7.25;100.00;103566.66;4994732;28;20030;-72
2022/01/22 12:53:56;;;;;;;2.33;2.10;;;;;;;7.09;100.00;103556.75;4993357;28;20095;-73
2022/01/22 12:59:01;;;;;;;3.15;2.60;;;;;;;7.39;100.00;103570.41;4994962;28;20046;-73
2022/01/22 13:01:29;;;;;;;3.67;2.72;;;;;;;7.51;100.00;103582.03;4993907;28;20045;-72
2022/01/22 13:03:56;;;;;;;3.85;2.55;;;;;;;7.32;100.00;103573.84;4993513;28;20026;-72
2022/01/22 13:06:25;;;;;;;2.20;2.08;;;;;;;7.36;100.00;103568.59;4993174;28;20049;-72
2022/01/22 13:08:55;;;;;;;2.38;2.17;;;;;;;7.36;100.00;103570.34;4993396;28;20027;-73
2022/01/22 13:11:25;;;;;;;2.60;2.33;;;;;;;7.36;100.00;103568.59;4993145;28;20454;-72